sim
Sign-in with your pilot id or email,
or register
Callsign
Passwort

Schedule Details

Flight Number: OEO4971
Departure: Venice Marco Polo Airport (LIPZ) at 15:55
Arrival: Bremen Airport (EDDW) at 17:45

Weather Information
Getting current METAR information for LIPZ 101850Z 17004KT 140V200 CAVOK 26/20 Q1012 NOSIG
Getting current METAR information for EDDW 101850Z 30006KT 9999 FEW027 14/11 Q1016 NOSIG

Schedule Frequency

Route Map